sensor_id;sensor_type;location;lat;lon;timestamp;pressure;altitude;pressure_sealevel;temperature;humidity
27980;BME280;15315;50.836;4.430;2023-02-02T00:08:29;101886.31;;;11.08;99.27
27980;BME280;15315;50.836;4.430;2023-02-02T00:18:30;101877.75;;;11.33;98.83
27980;BME280;15315;50.836;4.430;2023-02-02T00:28:30;101885.31;;;11.75;95.40
27980;BME280;15315;50.836;4.430;2023-02-02T00:38:31;101880.25;;;11.85;94.92
27980;BME280;15315;50.836;4.430;2023-02-02T00:48:31;101872.28;;;11.35;98.24
27980;BME280;15315;50.836;4.430;2023-02-02T00:58:32;101878.13;;;11.43;98.57
27980;BME280;15315;50.836;4.430;2023-02-02T01:08:32;101884.03;;;11.34;100.00
27980;BME280;15315;50.836;4.430;2023-02-02T01:18:32;101873.19;;;10.85;100.00
27980;BME280;15315;50.836;4.430;2023-02-02T01:28:33;101901.16;;;11.17;99.33
27980;BME280;15315;50.836;4.430;2023-02-02T01:38:33;101878.84;;;11.46;99.89
27980;BME280;15315;50.836;4.430;2023-02-02T01:48:34;101907.38;;;11.02;100.00
27980;BME280;15315;50.836;4.430;2023-02-02T01:58:36;101897.78;;;12.09;94.56
27980;BME280;15315;50.836;4.430;2023-02-02T02:08:45;101888.63;;;12.11;92.85
27980;BME280;15315;50.836;4.430;2023-02-02T02:19:10;101878.78;;;11.95;94.41
27980;BME280;15315;50.836;4.430;2023-02-02T02:39:31;101897.53;;;11.82;95.86
27980;BME280;15315;50.836;4.430;2023-02-02T02:49:41;101897.06;;;11.74;94.75
27980;BME280;15315;50.836;4.430;2023-02-02T03:10:08;101910.66;;;11.57;97.27
27980;BME280;15315;50.836;4.430;2023-02-02T03:20:10;101903.59;;;11.54;96.64
27980;BME280;15315;50.836;4.430;2023-02-02T03:30:12;101901.25;;;11.48;97.80
27980;BME280;15315;50.836;4.430;2023-02-02T03:40:13;101915.31;;;11.38;97.17
27980;BME280;15315;50.836;4.430;2023-02-02T03:50:14;101913.78;;;11.17;98.29
27980;BME280;15315;50.836;4.430;2023-02-02T04:00:14;101899.44;;;11.32;97.67
27980;BME280;15315;50.836;4.430;2023-02-02T04:10:16;101919.34;;;10.96;99.33
27980;BME280;15315;50.836;4.430;2023-02-02T04:20:16;101929.84;;;11.35;98.36
27980;BME280;15315;50.836;4.430;2023-02-02T04:30:17;101942.63;;;11.49;97.58
27980;BME280;15315;50.836;4.430;2023-02-02T04:40:19;101955.19;;;11.33;96.29
27980;BME280;15315;50.836;4.430;2023-02-02T04:50:19;101961.91;;;11.41;97.91
27980;BME280;15315;50.836;4.430;2023-02-02T05:00:19;101968.22;;;11.07;100.00
27980;BME280;15315;50.836;4.430;2023-02-02T05:10:20;101957.91;;;11.65;100.00
27980;BME280;15315;50.836;4.430;2023-02-02T05:20:20;101955.56;;;11.75;100.00
27980;BME280;15315;50.836;4.430;2023-02-02T05:30:21;101949.81;;;11.65;100.00
27980;BME280;15315;50.836;4.430;2023-02-02T05:40:21;101937.13;;;11.18;100.00
27980;BME280;15315;50.836;4.430;2023-02-02T05:50:22;101946.56;;;11.59;100.00
27980;BME280;15315;50.836;4.430;2023-02-02T06:00:22;101959.75;;;11.65;100.00
27980;BME280;15315;50.836;4.430;2023-02-02T06:10:23;101968.56;;;11.84;100.00
27980;BME280;15315;50.836;4.430;2023-02-02T06:20:23;101976.91;;;10.97;100.00
27980;BME280;15315;50.836;4.430;2023-02-02T06:30:24;101981.50;;;11.62;100.00
27980;BME280;15315;50.836;4.430;2023-02-02T06:40:26;101994.88;;;11.31;100.00
27980;BME280;15315;50.836;4.430;2023-02-02T06:50:27;101985.97;;;11.63;100.00
27980;BME280;15315;50.836;4.430;2023-02-02T07:00:28;101996.03;;;11.92;100.00
27980;BME280;15315;50.836;4.430;2023-02-02T07:10:29;102004.53;;;11.69;100.00
27980;BME280;15315;50.836;4.430;2023-02-02T07:20:29;102007.28;;;11.35;100.00
27980;BME280;15315;50.836;4.430;2023-02-02T07:30:30;102023.31;;;11.38;100.00
27980;BME280;15315;50.836;4.430;2023-02-02T07:40:30;102016.72;;;11.60;100.00
27980;BME280;15315;50.836;4.430;2023-02-02T07:50:30;102020.19;;;11.62;100.00
27980;BME280;15315;50.836;4.430;2023-02-02T08:00:31;102044.72;;;11.41;100.00
27980;BME280;15315;50.836;4.430;2023-02-02T08:10:31;102023.78;;;11.63;100.00
27980;BME280;15315;50.836;4.430;2023-02-02T08:20:32;102037.69;;;11.21;100.00
27980;BME280;15315;50.836;4.430;2023-02-02T08:30:34;102026.31;;;11.66;100.00
27980;BME280;15315;50.836;4.430;2023-02-02T08:40:34;102043.41;;;11.99;100.00
27980;BME280;15315;50.836;4.430;2023-02-02T08:50:35;102051.44;;;10.99;100.00
27980;BME280;15315;50.836;4.430;2023-02-02T09:00:35;102071.16;;;12.18;100.00
27980;BME280;15315;50.836;4.430;2023-02-02T09:10:36;102085.53;;;12.19;100.00
27980;BME280;15315;50.836;4.430;2023-02-02T09:20:37;102099.66;;;12.57;100.00
27980;BME280;15315;50.836;4.430;2023-02-02T09:30:38;102108.38;;;12.62;97.49
27980;BME280;15315;50.836;4.430;2023-02-02T09:40:39;102124.13;;;12.22;100.00
27980;BME280;15315;50.836;4.430;2023-02-02T09:50:46;102145.06;;;12.02;98.87
27980;BME280;15315;50.836;4.430;2023-02-02T10:11:36;102154.81;;;12.21;97.27
27980;BME280;15315;50.836;4.430;2023-02-02T10:52:32;102178.28;;;13.77;88.16
27980;BME280;15315;50.836;4.430;2023-02-02T11:02:33;102174.84;;;12.83;90.73
27980;BME280;15315;50.836;4.430;2023-02-02T11:12:36;102161.22;;;13.45;88.21
27980;BME280;15315;50.836;4.430;2023-02-02T11:22:40;102165.28;;;12.91;89.90
27980;BME280;15315;50.836;4.430;2023-02-02T11:32:40;102150.03;;;13.06;89.04
27980;BME280;15315;50.836;4.430;2023-02-02T11:42:45;102146.13;;;13.71;86.62
27980;BME280;15315;50.836;4.430;2023-02-02T11:52:46;102146.59;;;13.64;85.73
27980;BME280;15315;50.836;4.430;2023-02-02T12:02:48;102152.50;;;14.00;80.89
27980;BME280;15315;50.836;4.430;2023-02-02T12:12:52;102152.13;;;13.62;82.71
27980;BME280;15315;50.836;4.430;2023-02-02T12:33:29;102133.81;;;13.95;80.37
27980;BME280;15315;50.836;4.430;2023-02-02T12:43:41;102134.19;;;14.03;81.22
27980;BME280;15315;50.836;4.430;2023-02-02T13:14:31;102118.78;;;13.76;84.28
27980;BME280;15315;50.836;4.430;2023-02-02T13:24:37;102111.66;;;13.59;82.69
27980;BME280;15315;50.836;4.430;2023-02-02T13:34:53;102109.22;;;14.27;81.79
27980;BME280;15315;50.836;4.430;2023-02-02T13:45:01;102112.78;;;13.85;83.53
27980;BME280;15315;50.836;4.430;2023-02-02T14:05:39;102080.44;;;14.10;83.54
27980;BME280;15315;50.836;4.430;2023-02-02T14:15:42;102082.16;;;14.25;82.93
27980;BME280;15315;50.836;4.430;2023-02-02T14:45:45;102105.00;;;13.35;88.01
27980;BME280;15315;50.836;4.430;2023-02-02T14:56:07;102133.34;;;13.14;97.85
27980;BME280;15315;50.836;4.430;2023-02-02T15:19:23;102139.06;;;13.69;99.20
27980;BME280;15315;50.836;4.430;2023-02-02T15:29:34;102160.91;;;13.66;100.00
27980;BME280;15315;50.836;4.430;2023-02-02T15:39:43;102166.91;;;13.41;100.00
27980;BME280;15315;50.836;4.430;2023-02-02T15:49:45;102167.22;;;13.96;97.19
27980;BME280;15315;50.836;4.430;2023-02-02T15:59:45;102164.88;;;13.90;98.36
27980;BME280;15315;50.836;4.430;2023-02-02T16:09:45;102174.81;;;13.75;99.07
27980;BME280;15315;50.836;4.430;2023-02-02T16:19:48;102176.50;;;13.46;100.00
27980;BME280;15315;50.836;4.430;2023-02-02T16:29:49;102180.75;;;13.21;100.00
27980;BME280;15315;50.836;4.430;2023-02-02T16:39:55;102204.22;;;13.51;100.00
27980;BME280;15315;50.836;4.430;2023-02-02T17:00:18;102211.53;;;13.81;97.53
27980;BME280;15315;50.836;4.430;2023-02-02T17:10:24;102218.16;;;13.14;100.00
27980;BME280;15315;50.836;4.430;2023-02-02T17:20:26;102224.13;;;13.66;99.74
27980;BME280;15315;50.836;4.430;2023-02-02T17:30:27;102230.53;;;13.49;100.00
27980;BME280;15315;50.836;4.430;2023-02-02T17:40:28;102236.03;;;12.85;100.00
27980;BME280;15315;50.836;4.430;2023-02-02T17:50:29;102231.69;;;13.14;100.00
27980;BME280;15315;50.836;4.430;2023-02-02T18:00:31;102244.44;;;12.96;100.00
27980;BME280;15315;50.836;4.430;2023-02-02T18:10:31;102243.47;;;13.44;100.00
27980;BME280;15315;50.836;4.430;2023-02-02T18:20:32;102239.66;;;12.69;100.00
27980;BME280;15315;50.836;4.430;2023-02-02T18:30:39;102222.06;;;13.40;100.00
27980;BME280;15315;50.836;4.430;2023-02-02T18:40:39;102229.75;;;13.16;100.00
27980;BME280;15315;50.836;4.430;2023-02-02T18:50:40;102223.38;;;13.33;100.00
27980;BME280;15315;50.836;4.430;2023-02-02T19:00:41;102240.06;;;12.78;100.00
27980;BME280;15315;50.836;4.430;2023-02-02T19:10:41;102247.94;;;13.14;100.00
27980;BME280;15315;50.836;4.430;2023-02-02T19:20:42;102249.19;;;12.60;100.00
27980;BME280;15315;50.836;4.430;2023-02-02T19:30:43;102251.03;;;12.75;100.00
27980;BME280;15315;50.836;4.430;2023-02-02T19:40:44;102240.75;;;12.97;100.00
27980;BME280;15315;50.836;4.430;2023-02-02T19:50:45;102247.34;;;12.61;100.00
27980;BME280;15315;50.836;4.430;2023-02-02T20:00:48;102230.81;;;13.29;100.00
27980;BME280;15315;50.836;4.430;2023-02-02T20:10:51;102221.91;;;13.12;100.00
27980;BME280;15315;50.836;4.430;2023-02-02T20:20:54;102235.34;;;13.13;100.00
27980;BME280;15315;50.836;4.430;2023-02-02T20:30:55;102237.38;;;12.44;100.00
27980;BME280;15315;50.836;4.430;2023-02-02T20:40:55;102241.09;;;13.38;100.00
27980;BME280;15315;50.836;4.430;2023-02-02T20:50:56;102243.56;;;13.12;100.00
27980;BME280;15315;50.836;4.430;2023-02-02T21:00:56;102248.78;;;13.15;100.00
27980;BME280;15315;50.836;4.430;2023-02-02T21:10:56;102269.31;;;12.87;100.00
27980;BME280;15315;50.836;4.430;2023-02-02T21:20:57;102286.91;;;12.79;100.00
27980;BME280;15315;50.836;4.430;2023-02-02T21:30:57;102291.47;;;12.78;100.00
27980;BME280;15315;50.836;4.430;2023-02-02T21:40:58;102282.47;;;13.57;100.00
27980;BME280;15315;50.836;4.430;2023-02-02T21:51:17;102270.84;;;13.24;100.00
27980;BME280;15315;50.836;4.430;2023-02-02T22:01:34;102281.47;;;13.27;100.00
27980;BME280;15315;50.836;4.430;2023-02-02T22:21:43;102280.84;;;13.22;100.00
27980;BME280;15315;50.836;4.430;2023-02-02T22:31:43;102276.59;;;13.18;100.00
27980;BME280;15315;50.836;4.430;2023-02-02T22:41:44;102295.84;;;12.81;100.00
27980;BME280;15315;50.836;4.430;2023-02-02T22:51:44;102291.00;;;13.19;100.00
27980;BME280;15315;50.836;4.430;2023-02-02T23:01:44;102296.81;;;12.46;100.00
27980;BME280;15315;50.836;4.430;2023-02-02T23:11:45;102303.66;;;13.03;100.00
27980;BME280;15315;50.836;4.430;2023-02-02T23:21:45;102274.16;;;13.45;100.00
27980;BME280;15315;50.836;4.430;2023-02-02T23:31:45;102263.38;;;12.81;100.00
27980;BME280;15315;50.836;4.430;2023-02-02T23:41:46;102258.00;;;12.47;100.00
27980;BME280;15315;50.836;4.430;2023-02-02T23:51:46;102255.44;;;13.40;100.00
